createdAt,value
2022-12-23T00:01:25.657Z,31.85
2022-12-23T00:03:52.737Z,31.58
2022-12-23T00:06:20.226Z,31.33
2022-12-23T00:08:46.922Z,36.22
2022-12-23T00:11:19.319Z,31.77
2022-12-23T00:14:04.963Z,34.78
2022-12-23T00:16:31.604Z,33.78
2022-12-23T00:18:58.179Z,29.67
2022-12-23T00:21:24.699Z,35.58
2022-12-23T00:23:51.710Z,31.30
2022-12-23T00:26:23.635Z,35.17
2022-12-23T00:28:51.069Z,29.77
2022-12-23T00:31:19.250Z,30.30
2022-12-23T00:33:48.293Z,30.85
2022-12-23T00:36:20.522Z,30.70
2022-12-23T00:39:05.913Z,31.30
2022-12-23T00:41:51.256Z,30.00
2022-12-23T00:44:17.811Z,24.90
2022-12-23T00:46:44.362Z,28.70
2022-12-23T00:49:34.374Z,28.15
2022-12-23T00:52:01.081Z,25.63
2022-12-23T00:54:28.000Z,28.08
2022-12-23T00:56:54.742Z,27.90
2022-12-23T00:59:21.241Z,27.58
2022-12-23T01:02:06.222Z,27.42
2022-12-23T01:04:51.263Z,26.90
2022-12-23T01:07:17.876Z,26.45
2022-12-23T01:09:44.423Z,24.98
2022-12-23T01:12:10.944Z,27.60
2022-12-23T01:14:37.575Z,28.20
2022-12-23T01:17:06.031Z,26.55
2022-12-23T01:19:32.627Z,25.05
2022-12-23T01:21:59.188Z,27.42
2022-12-23T01:24:32.395Z,25.02
2022-12-23T01:26:59.810Z,25.67
2022-12-23T01:29:26.405Z,24.50
2022-12-23T01:31:52.987Z,25.75
2022-12-23T01:34:19.816Z,25.63
2022-12-23T01:36:46.293Z,25.30
2022-12-23T01:39:12.941Z,27.42
2022-12-23T01:41:58.003Z,26.85
2022-12-23T01:44:49.027Z,25.05
2022-12-23T01:47:22.270Z,23.10
2022-12-23T01:49:51.016Z,25.80
2022-12-23T01:52:17.536Z,25.10
2022-12-23T01:54:44.739Z,27.08
2022-12-23T01:57:12.070Z,24.25
2022-12-23T01:59:57.958Z,24.75
2022-12-23T02:02:44.881Z,26.67
2022-12-23T02:05:12.242Z,25.52
2022-12-23T02:07:58.236Z,26.23
2022-12-23T02:10:41.408Z,25.30
2022-12-23T02:13:19.447Z,27.85
2022-12-23T02:16:09.737Z,23.00
2022-12-23T02:19:13.473Z,23.60
2022-12-23T02:22:01.585Z,25.23
2022-12-23T02:25:06.697Z,23.52
2022-12-23T11:45:43.934Z,35.00
2022-12-23T11:48:28.533Z,30.00
2022-12-23T11:51:01.169Z,29.55
2022-12-23T11:53:28.120Z,28.88
2022-12-23T11:56:05.355Z,30.55
2022-12-23T11:58:40.623Z,28.33
2022-12-23T12:03:48.533Z,29.50
2022-12-23T12:06:17.165Z,27.35
2022-12-23T12:08:43.762Z,30.02
2022-12-23T12:11:17.248Z,30.15
2022-12-23T12:13:48.452Z,28.65
2022-12-23T12:16:34.171Z,29.58
2022-12-23T12:19:10.865Z,29.52
2022-12-23T12:21:38.841Z,28.65
2022-12-23T12:24:22.755Z,28.63
2022-12-23T12:26:52.851Z,27.60
2022-12-23T12:29:37.252Z,30.65
2022-12-23T12:32:10.416Z,30.50
2022-12-23T12:34:56.414Z,28.92
2022-12-23T12:37:36.745Z,29.25
2022-12-23T12:40:26.205Z,26.77
2022-12-23T12:43:12.577Z,31.75
2022-12-23T12:48:25.239Z,25.10
2022-12-23T12:51:26.191Z,30.80
2022-12-23T12:54:16.266Z,28.55
2022-12-23T12:56:50.127Z,27.05
2022-12-23T12:59:19.798Z,30.83
2022-12-23T13:02:00.752Z,24.80
2022-12-23T13:04:30.359Z,27.63
2022-12-23T13:07:08.241Z,30.08
2022-12-23T13:10:00.269Z,30.13
2022-12-23T13:12:36.091Z,26.48
2022-12-23T13:15:23.674Z,26.58
2022-12-23T13:18:13.349Z,26.98
2022-12-23T13:20:48.655Z,29.60
2022-12-23T13:23:42.776Z,32.70
2022-12-23T13:26:34.785Z,31.20
2022-12-23T13:29:22.529Z,33.25
2022-12-23T13:31:58.460Z,29.27
2022-12-23T13:37:09.961Z,25.70
2022-12-23T13:39:56.407Z,26.98
2022-12-23T13:42:34.283Z,26.63
2022-12-23T13:45:01.998Z,28.88
2022-12-23T13:47:47.389Z,28.88
2022-12-23T13:50:23.136Z,27.30
2022-12-23T13:52:55.497Z,27.20
2022-12-23T13:55:47.285Z,30.10
2022-12-23T13:58:18.341Z,29.02
2022-12-23T14:00:44.943Z,30.70
2022-12-23T14:03:14.065Z,25.63
2022-12-23T14:05:51.139Z,27.00
2022-12-23T14:08:25.742Z,27.42
2022-12-23T14:11:03.077Z,28.55
2022-12-23T14:14:05.987Z,25.75
2022-12-23T14:16:56.822Z,29.15
2022-12-23T14:19:51.054Z,28.95
2022-12-23T14:22:32.648Z,36.28
2022-12-23T14:25:21.767Z,28.75
2022-12-23T14:27:59.961Z,28.35
2022-12-23T14:30:42.816Z,29.45
2022-12-23T14:33:18.574Z,32.22
2022-12-23T14:35:45.087Z,31.05
2022-12-23T14:38:14.302Z,31.25
2022-12-23T14:40:48.576Z,29.27
2022-12-23T14:43:27.066Z,33.45
2022-12-23T14:45:58.118Z,30.67
2022-12-23T14:48:33.653Z,33.60
2022-12-23T14:51:09.900Z,32.15
2022-12-23T14:53:58.192Z,30.65
2022-12-23T14:56:39.778Z,33.03
2022-12-23T14:59:09.014Z,27.60
2022-12-23T15:01:46.655Z,28.15
2022-12-23T15:04:27.214Z,30.75
2022-12-23T15:06:58.790Z,29.92
2022-12-23T15:09:31.846Z,29.75
2022-12-23T15:12:11.085Z,38.58
2022-12-23T15:14:43.040Z,35.92
2022-12-23T15:17:38.783Z,29.60
2022-12-23T15:33:02.478Z,38.97
2022-12-23T15:35:32.806Z,33.42
2022-12-23T15:38:01.819Z,34.22
2022-12-23T15:40:37.068Z,37.58
2022-12-23T15:43:24.020Z,35.80
2022-12-23T15:45:50.998Z,33.25
2022-12-23T15:48:32.292Z,32.90
2022-12-23T15:51:08.346Z,36.50
2022-12-23T15:56:08.322Z,33.80
2022-12-23T15:58:37.486Z,34.97
2022-12-23T16:01:04.860Z,33.67
2022-12-23T16:03:39.358Z,34.30
2022-12-23T16:06:25.320Z,33.30
2022-12-23T16:09:05.318Z,34.38
2022-12-23T16:11:56.726Z,33.03
2022-12-23T16:14:31.170Z,35.38
2022-12-23T16:17:07.631Z,33.40
2022-12-23T16:19:42.240Z,34.75
2022-12-23T16:22:37.313Z,33.75
2022-12-23T16:25:24.854Z,34.80
2022-12-23T16:28:07.757Z,33.33
2022-12-23T16:30:37.279Z,30.83
2022-12-23T16:33:32.014Z,35.67
2022-12-23T16:36:34.585Z,33.75
2022-12-23T16:39:16.998Z,32.22
2022-12-23T16:41:43.532Z,35.13
2022-12-23T16:44:10.054Z,31.70
2022-12-23T16:46:39.813Z,35.83
2022-12-23T16:49:11.176Z,33.92
2022-12-23T16:51:39.528Z,34.58
2022-12-23T16:54:06.091Z,37.97
2022-12-23T16:56:37.442Z,30.67
2022-12-23T16:59:04.558Z,33.45
2022-12-23T17:01:35.225Z,33.42
2022-12-23T17:04:02.209Z,31.15
2022-12-23T17:06:28.799Z,35.88
2022-12-23T17:08:56.889Z,35.33
2022-12-23T17:11:47.136Z,36.35
2022-12-23T17:14:20.375Z,35.92
2022-12-23T17:16:48.111Z,34.13
2022-12-23T17:19:15.525Z,32.65
2022-12-23T17:21:44.475Z,34.97
2022-12-23T17:24:22.062Z,36.53
2022-12-23T17:26:48.681Z,35.60
2022-12-23T17:29:15.331Z,31.30
2022-12-23T17:31:43.785Z,36.75
2022-12-23T17:34:16.110Z,35.63
2022-12-23T17:36:49.315Z,37.33
2022-12-23T17:39:16.840Z,34.05
2022-12-23T17:41:43.404Z,35.58
2022-12-23T17:44:13.919Z,34.38
2022-12-23T17:46:40.446Z,42.22
2022-12-23T17:49:06.929Z,34.17
2022-12-23T17:51:33.603Z,36.22
2022-12-23T17:54:00.142Z,38.30
2022-12-23T17:56:28.758Z,39.38
2022-12-23T17:58:55.408Z,36.92
2022-12-23T18:01:25.200Z,42.15
2022-12-23T18:03:52.657Z,39.58
2022-12-23T18:06:20.783Z,41.10
2022-12-23T18:08:47.863Z,37.97
2022-12-23T18:11:44.763Z,38.17
2022-12-23T18:16:41.025Z,34.40
2022-12-23T18:19:18.100Z,36.08
2022-12-23T18:21:44.975Z,35.50
2022-12-23T18:24:11.491Z,41.55
2022-12-23T18:26:38.089Z,39.40
2022-12-23T18:29:04.746Z,40.15
2022-12-23T18:31:31.452Z,36.55
2022-12-23T18:33:59.637Z,38.05
2022-12-23T18:36:31.251Z,40.75
2022-12-23T18:38:57.809Z,40.88
2022-12-23T18:41:25.923Z,41.15
2022-12-23T23:21:29.369Z,36.00
2022-12-23T23:23:55.889Z,43.45
2022-12-23T23:26:26.764Z,40.58
2022-12-23T23:28:54.694Z,35.33
2022-12-23T23:34:07.899Z,40.97
2022-12-23T23:36:34.642Z,44.53
2022-12-23T23:39:01.224Z,42.58
2022-12-23T23:41:27.771Z,42.15
2022-12-23T23:43:54.261Z,42.17
2022-12-23T23:46:20.824Z,38.45
2022-12-23T23:48:47.690Z,42.50
2022-12-23T23:51:14.236Z,43.40
2022-12-23T23:53:40.831Z,40.25
2022-12-23T23:56:08.322Z,43.58
2022-12-23T23:58:36.448Z,36.63
